createdAt,value
2018-07-26T00:02:07.073Z,26.50
2018-07-26T00:04:36.317Z,26.50
2018-07-26T00:07:05.956Z,26.50
2018-07-26T00:09:35.186Z,26.40
2018-07-26T00:12:04.464Z,26.40
2018-07-26T00:14:33.692Z,26.30
2018-07-26T00:17:02.992Z,26.30
2018-07-26T00:19:32.262Z,26.30
2018-07-26T00:22:01.494Z,26.20
2018-07-26T00:24:30.728Z,26.20
2018-07-26T00:26:59.997Z,26.10
2018-07-26T00:29:29.294Z,26.10
2018-07-26T00:31:58.530Z,26.00
2018-07-26T00:34:27.811Z,26.00
2018-07-26T00:36:57.083Z,25.90
2018-07-26T00:39:26.357Z,26.00
2018-07-26T00:41:55.612Z,25.90
2018-07-26T00:44:24.845Z,25.90
2018-07-26T00:46:54.102Z,25.90
2018-07-26T00:49:23.326Z,25.80
2018-07-26T00:51:52.572Z,25.80
2018-07-26T00:54:21.776Z,25.80
2018-07-26T00:56:51.016Z,25.80
2018-07-26T00:59:20.262Z,25.70
2018-07-26T01:01:49.495Z,25.70
2018-07-26T01:04:18.738Z,25.70
2018-07-26T01:06:47.963Z,25.60
2018-07-26T01:09:17.219Z,25.60
2018-07-26T01:11:46.457Z,25.60
2018-07-26T01:14:15.687Z,25.60
2018-07-26T01:16:45.253Z,25.50
2018-07-26T01:19:14.749Z,25.50
2018-07-26T01:21:44.269Z,25.50
2018-07-26T01:24:13.913Z,25.40
2018-07-26T01:26:43.647Z,25.40
2018-07-26T01:29:13.386Z,25.30
2018-07-26T01:31:43.118Z,25.30
2018-07-26T01:34:12.772Z,25.30
2018-07-26T01:36:42.374Z,25.30
2018-07-26T01:39:12.154Z,25.30
2018-07-26T01:41:41.802Z,25.20
2018-07-26T01:44:19.001Z,25.20
2018-07-26T01:46:48.690Z,25.20
2018-07-26T01:49:18.744Z,25.20
2018-07-26T01:51:48.541Z,25.10
2018-07-26T01:54:18.256Z,25.10
2018-07-26T01:56:47.882Z,25.10
2018-07-26T01:59:17.465Z,25.10
2018-07-26T02:01:47.159Z,25.00
2018-07-26T02:04:16.743Z,25.00
2018-07-26T02:06:46.394Z,25.00
2018-07-26T02:09:15.996Z,25.00
2018-07-26T02:11:45.601Z,24.90
2018-07-26T02:14:20.446Z,24.90
2018-07-26T02:16:50.194Z,24.90
2018-07-26T02:19:19.883Z,24.90
2018-07-26T02:22:19.949Z,24.80
2018-07-26T02:24:49.534Z,24.80
2018-07-26T02:27:19.210Z,24.80
2018-07-26T02:29:48.937Z,24.80
2018-07-26T02:32:18.509Z,24.80
2018-07-26T02:34:48.114Z,24.70
2018-07-26T02:37:17.787Z,24.70
2018-07-26T02:39:47.489Z,24.70
2018-07-26T02:42:17.077Z,24.60
2018-07-26T02:44:46.680Z,24.60
2018-07-26T02:47:16.287Z,24.60
2018-07-26T02:49:45.880Z,24.60
2018-07-26T02:52:15.385Z,24.60
2018-07-26T02:54:44.970Z,24.50
2018-07-26T02:57:14.846Z,24.50
2018-07-26T02:59:44.569Z,24.50
2018-07-26T03:02:14.366Z,24.50
2018-07-26T03:04:43.950Z,24.40
2018-07-26T03:07:13.757Z,24.40
2018-07-26T03:09:43.417Z,24.40
2018-07-26T03:12:12.946Z,24.40
2018-07-26T03:14:44.778Z,24.40
2018-07-26T03:17:15.534Z,24.30
2018-07-26T03:19:45.827Z,24.30
2018-07-26T03:22:15.426Z,24.30
2018-07-26T03:24:45.035Z,24.30
2018-07-26T03:27:14.702Z,24.20
2018-07-26T03:29:44.392Z,24.20
2018-07-26T03:32:14.150Z,24.20
2018-07-26T03:34:43.673Z,24.20
2018-07-26T03:37:13.317Z,24.20
2018-07-26T03:39:42.943Z,24.20
2018-07-26T03:42:12.706Z,24.20
2018-07-26T03:44:42.301Z,24.10
2018-07-26T03:47:11.986Z,24.10
2018-07-26T03:49:41.571Z,24.10
2018-07-26T03:52:42.119Z,24.10
2018-07-26T03:55:11.809Z,24.10
2018-07-26T03:57:41.563Z,24.00
2018-07-26T04:00:11.101Z,24.00
2018-07-26T04:02:40.742Z,23.90
2018-07-26T04:05:10.417Z,23.90
2018-07-26T04:07:40.699Z,23.90
2018-07-26T04:10:10.437Z,23.90
2018-07-26T04:12:40.195Z,23.90
2018-07-26T04:15:09.913Z,23.90
2018-07-26T04:17:39.528Z,23.90
2018-07-26T04:20:09.288Z,23.90
2018-07-26T04:22:38.985Z,23.90
2018-07-26T04:25:08.661Z,23.90
2018-07-26T04:27:38.287Z,23.90
2018-07-26T04:30:07.841Z,23.90
2018-07-26T04:32:37.629Z,23.90
2018-07-26T04:35:07.297Z,23.90
2018-07-26T04:37:38.965Z,23.90
2018-07-26T04:40:08.621Z,23.90
2018-07-26T04:42:38.304Z,23.90
2018-07-26T04:45:08.402Z,23.90
2018-07-26T04:47:38.577Z,23.90
2018-07-26T04:50:08.293Z,24.00
2018-07-26T04:52:38.092Z,24.00
2018-07-26T04:55:07.701Z,24.00
2018-07-26T04:57:37.321Z,24.10
2018-07-26T05:00:08.112Z,24.10
2018-07-26T05:02:37.791Z,24.10
2018-07-26T05:05:08.041Z,24.10
2018-07-26T05:07:37.729Z,24.20
2018-07-26T05:10:07.483Z,24.20
2018-07-26T05:12:37.145Z,24.30
2018-07-26T05:15:07.977Z,24.30
2018-07-26T05:17:37.558Z,24.40
2018-07-26T05:20:07.973Z,24.50
2018-07-26T05:22:38.403Z,24.60
2018-07-26T05:25:07.994Z,24.80
2018-07-26T05:30:07.499Z,25.00
2018-07-26T05:32:37.156Z,25.20
2018-07-26T05:35:06.871Z,25.30
2018-07-26T05:37:36.486Z,25.40
2018-07-26T05:40:06.762Z,25.60
2018-07-26T05:42:36.486Z,25.70
2018-07-26T05:45:06.535Z,25.80
2018-07-26T05:47:36.016Z,26.00
2018-07-26T05:50:06.222Z,26.20
2018-07-26T05:52:35.975Z,26.30
2018-07-26T05:55:06.365Z,26.40
2018-07-26T05:57:36.228Z,26.50
2018-07-26T06:00:10.887Z,26.60
2018-07-26T06:02:40.543Z,26.80
2018-07-26T06:05:10.598Z,26.90
2018-07-26T06:07:40.818Z,27.00
2018-07-26T06:10:10.639Z,27.10
2018-07-26T06:12:40.434Z,27.20
2018-07-26T06:15:12.189Z,27.30
2018-07-26T06:17:42.285Z,27.20
2018-07-26T06:20:12.896Z,27.30
2018-07-26T06:22:42.589Z,27.30
2018-07-26T06:25:12.187Z,27.40
2018-07-26T06:27:41.776Z,27.50
2018-07-26T06:30:12.990Z,27.60
2018-07-26T06:32:42.603Z,27.80
2018-07-26T06:35:12.208Z,28.00
2018-07-26T06:37:41.732Z,28.20
2018-07-26T06:40:11.384Z,28.40
2018-07-26T06:42:40.997Z,28.50
2018-07-26T06:45:11.278Z,28.70
2018-07-26T06:47:40.956Z,28.90
2018-07-26T06:50:12.051Z,29.10
2018-07-26T06:52:42.216Z,29.30
2018-07-26T06:55:12.125Z,29.50
2018-07-26T06:57:41.861Z,29.70
2018-07-26T07:00:11.822Z,29.80
2018-07-26T07:05:11.272Z,30.10
2018-07-26T07:07:40.949Z,30.20
2018-07-26T07:10:10.595Z,30.40
2018-07-26T07:15:09.712Z,30.70
2018-07-26T07:17:39.434Z,30.90
2018-07-26T07:20:09.858Z,31.10
2018-07-26T07:22:39.436Z,31.20
2018-07-26T07:25:09.062Z,31.30
2018-07-26T07:27:38.777Z,31.40
2018-07-26T07:30:11.752Z,31.50
2018-07-26T07:32:41.972Z,31.50
2018-07-26T07:35:11.710Z,31.60
2018-07-26T07:37:41.294Z,31.60
2018-07-26T07:40:11.153Z,31.60
2018-07-26T07:42:40.726Z,31.70
2018-07-26T07:45:10.391Z,31.70
2018-07-26T07:47:40.189Z,31.70
2018-07-26T07:50:09.803Z,31.80
2018-07-26T07:52:39.515Z,31.90
2018-07-26T07:55:09.142Z,32.00
2018-07-26T07:57:38.786Z,32.20
2018-07-26T08:00:09.750Z,32.40
2018-07-26T08:02:39.401Z,32.60
2018-07-26T08:05:09.132Z,32.90
2018-07-26T08:07:38.773Z,33.20
2018-07-26T08:10:11.050Z,33.40
2018-07-26T08:12:40.865Z,33.60
2018-07-26T08:15:11.530Z,33.80
2018-07-26T08:17:41.142Z,33.90
2018-07-26T08:20:11.574Z,34.10
2018-07-26T08:22:41.297Z,34.30
2018-07-26T08:25:11.738Z,34.40
2018-07-26T08:27:41.405Z,34.40
2018-07-26T08:30:12.045Z,34.60
2018-07-26T08:32:41.478Z,34.60
2018-07-26T08:35:10.982Z,34.70
2018-07-26T08:37:40.765Z,34.90
2018-07-26T08:40:10.447Z,35.00
2018-07-26T08:42:40.168Z,35.10
2018-07-26T08:47:39.125Z,35.40
2018-07-26T08:50:09.252Z,35.60
2018-07-26T08:52:38.947Z,35.70
2018-07-26T08:55:08.765Z,35.90
2018-07-26T08:57:38.328Z,36.00
2018-07-26T09:00:08.248Z,36.20
2018-07-26T09:05:07.666Z,36.60
2018-07-26T09:07:37.387Z,36.80
2018-07-26T09:10:07.036Z,37.10
2018-07-26T09:12:36.618Z,37.30
2018-07-26T09:15:06.643Z,37.40
2018-07-26T09:17:36.580Z,37.60
2018-07-26T09:20:09.058Z,37.60
2018-07-26T09:22:38.686Z,37.60
2018-07-26T09:25:08.317Z,37.60
2018-07-26T09:27:37.984Z,37.60
2018-07-26T09:30:09.838Z,37.70
2018-07-26T09:32:39.586Z,37.70
2018-07-26T09:35:09.719Z,37.80
2018-07-26T09:37:39.394Z,37.90
2018-07-26T09:40:08.888Z,38.00
2018-07-26T09:42:38.502Z,38.10
2018-07-26T09:45:08.106Z,38.20
2018-07-26T09:47:37.725Z,38.20
2018-07-26T09:50:07.792Z,38.30
2018-07-26T09:52:37.370Z,38.40
2018-07-26T09:55:07.070Z,38.40
2018-07-26T09:57:36.624Z,38.50
2018-07-26T10:00:07.546Z,38.60
2018-07-26T10:02:37.242Z,38.70
2018-07-26T10:05:07.601Z,38.80
2018-07-26T10:07:37.324Z,38.90
2018-07-26T10:10:07.042Z,38.90
2018-07-26T10:12:36.714Z,39.10
2018-07-26T10:15:06.687Z,39.20
2018-07-26T10:17:36.342Z,39.30
2018-07-26T10:20:06.411Z,39.50
2018-07-26T10:22:36.116Z,39.60
2018-07-26T10:25:05.805Z,39.70
2018-07-26T10:27:35.272Z,39.80
2018-07-26T10:30:05.319Z,39.80
2018-07-26T10:32:35.189Z,39.80
2018-07-26T10:35:04.910Z,40.00
2018-07-26T10:37:34.677Z,40.00
2018-07-26T10:40:04.936Z,40.10
2018-07-26T10:42:34.618Z,40.30
2018-07-26T10:45:04.395Z,40.40
2018-07-26T10:47:34.135Z,40.60
2018-07-26T10:50:04.923Z,40.70
2018-07-26T10:52:34.472Z,40.80
2018-07-26T10:55:04.145Z,40.80
2018-07-26T10:57:33.712Z,40.80
2018-07-26T11:00:03.409Z,40.90
2018-07-26T11:02:33.874Z,41.00
2018-07-26T11:06:06.537Z,41.10
2018-07-26T11:08:36.117Z,41.20
2018-07-26T11:11:05.683Z,41.30
2018-07-26T11:13:35.340Z,41.30
2018-07-26T11:16:04.914Z,41.30
2018-07-26T11:18:34.494Z,41.30
2018-07-26T11:21:04.205Z,41.30
2018-07-26T11:23:33.877Z,41.40
2018-07-26T11:26:03.655Z,41.40
2018-07-26T11:28:33.271Z,41.50
2018-07-26T11:31:02.906Z,41.50
2018-07-26T11:33:32.663Z,41.50
2018-07-26T11:36:02.388Z,41.50
2018-07-26T11:38:31.957Z,41.50
2018-07-26T11:41:01.527Z,41.60
2018-07-26T11:46:00.232Z,41.80
2018-07-26T11:48:29.841Z,41.80
2018-07-26T11:50:59.496Z,42.00
2018-07-26T11:53:29.085Z,42.20
2018-07-26T11:55:58.780Z,42.30
2018-07-26T11:58:28.320Z,42.40
2018-07-26T12:00:57.946Z,42.60
2018-07-26T12:03:27.558Z,42.60
2018-07-26T12:05:57.268Z,42.70
2018-07-26T12:08:26.694Z,42.80
2018-07-26T12:10:56.131Z,42.80
2018-07-26T12:13:25.669Z,42.90
2018-07-26T12:15:55.437Z,43.00
2018-07-26T12:20:54.491Z,43.30
2018-07-26T12:23:24.203Z,43.40
2018-07-26T12:25:53.847Z,43.50
2018-07-26T12:28:23.506Z,43.60
2018-07-26T12:30:53.159Z,43.70
2018-07-26T12:33:22.860Z,43.70
2018-07-26T12:35:52.620Z,43.80
2018-07-26T12:38:22.262Z,43.90
2018-07-26T12:40:51.970Z,44.00
2018-07-26T12:43:21.638Z,44.20
2018-07-26T12:45:51.314Z,44.30
2018-07-26T12:48:20.910Z,44.30
2018-07-26T12:50:50.526Z,44.30
2018-07-26T12:53:20.262Z,44.40
2018-07-26T12:55:50.037Z,44.30
2018-07-26T12:58:19.677Z,44.30
2018-07-26T13:00:49.349Z,44.00
2018-07-26T13:03:19.080Z,44.00
2018-07-26T13:05:48.906Z,43.90
2018-07-26T13:08:18.688Z,43.70
2018-07-26T13:10:48.433Z,43.60
2018-07-26T13:13:18.024Z,43.40
2018-07-26T13:15:47.695Z,43.10
2018-07-26T13:18:17.347Z,42.80
2018-07-26T13:20:46.993Z,42.50
2018-07-26T13:23:16.704Z,42.40
2018-07-26T13:25:46.372Z,42.40
2018-07-26T13:28:15.914Z,42.40
2018-07-26T13:30:45.711Z,42.50
2018-07-26T13:33:15.522Z,42.70
2018-07-26T13:35:45.145Z,42.80
2018-07-26T13:38:14.851Z,42.80
2018-07-26T13:40:44.586Z,42.80
2018-07-26T13:43:14.232Z,42.60
2018-07-26T13:45:43.877Z,42.50
2018-07-26T13:48:13.678Z,42.40
2018-07-26T13:50:43.384Z,42.30
2018-07-26T13:53:13.206Z,42.20
2018-07-26T13:55:42.886Z,42.10
2018-07-26T13:58:12.526Z,42.00
2018-07-26T14:00:42.235Z,42.10
2018-07-26T14:03:12.017Z,42.10
2018-07-26T14:05:41.545Z,42.30
2018-07-26T14:08:11.314Z,42.50
2018-07-26T14:14:13.681Z,42.80
2018-07-26T14:16:43.297Z,42.80
2018-07-26T14:19:12.994Z,42.80
2018-07-26T14:24:17.442Z,42.40
2018-07-26T14:26:47.201Z,42.50
2018-07-26T14:29:16.981Z,42.50
2018-07-26T14:31:46.714Z,42.50
2018-07-26T14:34:16.495Z,42.70
2018-07-26T14:36:47.105Z,42.80
2018-07-26T14:39:16.815Z,42.90
2018-07-26T14:41:46.635Z,42.90
2018-07-26T14:44:16.456Z,43.00
2018-07-26T14:46:46.208Z,43.10
2018-07-26T14:49:15.955Z,43.30
2018-07-26T14:51:45.631Z,43.40
2018-07-26T14:54:15.363Z,43.50
2018-07-26T14:56:45.103Z,43.60
2018-07-26T14:59:14.711Z,43.60
2018-07-26T15:01:44.395Z,43.70
2018-07-26T15:04:14.228Z,43.70
2018-07-26T15:06:43.897Z,43.60
2018-07-26T15:09:13.590Z,43.60
2018-07-26T15:11:43.206Z,43.50
2018-07-26T15:16:42.122Z,43.30
2018-07-26T15:19:11.884Z,43.10
2018-07-26T15:21:41.591Z,42.90
2018-07-26T15:24:11.273Z,42.50
2018-07-26T15:26:40.886Z,42.20
2018-07-26T15:29:10.651Z,41.80
2018-07-26T15:31:40.426Z,41.60
2018-07-26T15:34:10.164Z,41.20
2018-07-26T15:36:39.920Z,40.90
2018-07-26T15:39:10.866Z,40.40
2018-07-26T15:41:44.692Z,40.00
2018-07-26T15:44:15.830Z,39.80
2018-07-26T15:46:45.660Z,39.40
2018-07-26T15:49:15.318Z,39.30
2018-07-26T15:54:14.576Z,39.00
2018-07-26T15:56:44.314Z,38.90
2018-07-26T15:59:14.020Z,38.80
2018-07-26T16:01:43.734Z,38.70
2018-07-26T16:04:13.545Z,38.50
2018-07-26T16:06:43.396Z,38.30
2018-07-26T16:09:13.064Z,38.10
2018-07-26T16:11:42.749Z,38.00
2018-07-26T16:14:12.472Z,37.70
2018-07-26T16:16:42.459Z,37.50
2018-07-26T16:19:12.096Z,37.30
2018-07-26T16:21:41.918Z,37.20
2018-07-26T16:24:11.689Z,37.00
2018-07-26T16:29:10.781Z,36.80
2018-07-26T16:31:40.460Z,36.80
2018-07-26T16:34:10.257Z,36.70
2018-07-26T16:36:40.007Z,36.70
2018-07-26T16:39:12.153Z,36.60
2018-07-26T16:41:42.129Z,36.40
2018-07-26T16:44:26.607Z,36.10
2018-07-26T16:46:56.475Z,35.80
2018-07-26T16:49:26.169Z,35.50
2018-07-26T16:51:55.927Z,35.00
2018-07-26T16:54:25.649Z,34.50
2018-07-26T16:56:55.303Z,33.90
2018-07-26T16:59:25.027Z,33.40
2018-07-26T17:01:54.748Z,32.90
2018-07-26T17:04:24.517Z,32.50
2018-07-26T17:06:54.695Z,32.30
2018-07-26T17:09:24.363Z,32.00
2018-07-26T17:11:54.043Z,31.80
2018-07-26T17:16:53.023Z,31.80
2018-07-26T17:19:22.658Z,31.80
2018-07-26T17:21:52.930Z,31.80
2018-07-26T17:24:35.387Z,31.70
2018-07-26T17:27:12.959Z,31.60
2018-07-26T17:29:42.705Z,31.50
2018-07-26T17:34:41.847Z,31.30
2018-07-26T17:37:11.506Z,31.20
2018-07-26T17:39:41.175Z,31.10
2018-07-26T17:42:10.975Z,31.10
2018-07-26T17:44:40.649Z,31.00
2018-07-26T17:47:10.400Z,31.00
2018-07-26T17:49:40.074Z,30.90
2018-07-26T17:52:09.846Z,30.90
2018-07-26T17:54:39.570Z,30.90
2018-07-26T17:57:09.285Z,30.90
2018-07-26T17:59:38.977Z,30.90
2018-07-26T18:02:08.654Z,31.00
2018-07-26T18:04:38.322Z,31.00
2018-07-26T18:07:08.050Z,31.10
2018-07-26T18:09:37.860Z,31.20
2018-07-26T18:12:07.524Z,31.30
2018-07-26T18:14:37.209Z,31.40
2018-07-26T18:17:06.874Z,31.50
2018-07-26T18:19:36.600Z,31.50
2018-07-26T18:22:06.539Z,31.60
2018-07-26T18:24:36.350Z,31.70
2018-07-26T18:27:06.331Z,31.80
2018-07-26T18:29:36.284Z,31.90
2018-07-26T18:32:05.957Z,32.00
2018-07-26T18:34:35.629Z,32.10
2018-07-26T18:37:05.339Z,32.20
2018-07-26T18:39:35.064Z,32.30
2018-07-26T18:42:04.844Z,32.40
2018-07-26T18:44:34.461Z,32.50
2018-07-26T18:47:04.162Z,32.50
2018-07-26T18:49:33.826Z,32.60
2018-07-26T18:52:03.563Z,32.60
2018-07-26T18:54:33.307Z,32.60
2018-07-26T18:57:02.942Z,32.60
2018-07-26T18:59:32.728Z,32.60
2018-07-26T19:02:02.669Z,32.60
2018-07-26T19:04:32.436Z,32.60
2018-07-26T19:07:02.165Z,32.60
2018-07-26T19:09:31.786Z,32.50
2018-07-26T19:12:01.451Z,32.50
2018-07-26T19:14:31.140Z,32.40
2018-07-26T19:17:00.757Z,32.40
2018-07-26T19:19:30.454Z,32.40
2018-07-26T19:22:00.845Z,32.40
2018-07-26T19:24:30.642Z,32.30
2018-07-26T19:27:00.328Z,32.30
2018-07-26T19:29:29.960Z,32.30
2018-07-26T19:31:59.670Z,32.30
2018-07-26T19:34:29.613Z,32.20
2018-07-26T19:36:59.338Z,32.20
2018-07-26T19:39:29.046Z,32.10
2018-07-26T19:41:58.726Z,32.00
2018-07-26T19:44:28.380Z,32.00
2018-07-26T19:46:58.082Z,31.90
2018-07-26T19:49:27.767Z,31.80
2018-07-26T19:51:57.557Z,31.80
2018-07-26T19:54:27.189Z,31.70
2018-07-26T19:56:56.866Z,31.60
2018-07-26T19:59:26.513Z,31.50
2018-07-26T20:01:56.430Z,31.40
2018-07-26T20:04:26.325Z,31.40
2018-07-26T20:06:56.014Z,31.30
2018-07-26T20:09:25.871Z,31.30
2018-07-26T20:11:55.582Z,31.20
2018-07-26T20:14:25.216Z,31.20
2018-07-26T20:16:54.881Z,31.20
2018-07-26T20:19:24.451Z,31.20
2018-07-26T20:21:54.251Z,31.10
2018-07-26T20:24:23.950Z,31.10
2018-07-26T20:26:53.748Z,31.10
2018-07-26T20:29:23.439Z,31.10
2018-07-26T20:34:22.854Z,31.10
2018-07-26T20:36:52.434Z,31.00
2018-07-26T20:39:22.328Z,31.00
2018-07-26T20:41:52.046Z,31.00
2018-07-26T20:44:21.933Z,31.00
2018-07-26T20:46:51.614Z,30.90
2018-07-26T20:49:21.347Z,30.90
2018-07-26T20:54:20.428Z,30.90
2018-07-26T20:56:50.179Z,30.90
2018-07-26T20:59:19.850Z,30.90
2018-07-26T21:01:49.624Z,30.90
2018-07-26T21:04:19.374Z,30.90
2018-07-26T21:06:49.042Z,30.90
2018-07-26T21:09:18.829Z,30.80
2018-07-26T21:14:18.079Z,30.80
2018-07-26T21:16:47.738Z,30.70
2018-07-26T21:19:17.468Z,30.60
2018-07-26T21:21:47.345Z,30.60
2018-07-26T21:24:17.009Z,30.50
2018-07-26T21:26:47.007Z,30.40
2018-07-26T21:29:16.851Z,30.30
2018-07-26T21:31:46.911Z,30.20
2018-07-26T21:34:16.670Z,30.20
2018-07-26T21:36:46.545Z,30.10
2018-07-26T21:39:16.270Z,30.00
2018-07-26T21:41:46.068Z,29.90
2018-07-26T21:44:15.788Z,29.70
2018-07-26T21:46:45.547Z,29.60
2018-07-26T21:49:15.218Z,29.50
2018-07-26T21:51:44.887Z,29.40
2018-07-26T21:54:14.642Z,29.30
2018-07-26T21:56:44.278Z,29.10
2018-07-26T21:59:14.044Z,29.00
2018-07-26T22:01:43.756Z,28.90
2018-07-26T22:04:13.442Z,28.80
2018-07-26T22:06:43.090Z,28.70
2018-07-26T22:09:13.238Z,28.60
2018-07-26T22:11:42.934Z,28.50
2018-07-26T22:14:12.614Z,28.40
2018-07-26T22:16:42.274Z,28.40
2018-07-26T22:19:11.968Z,28.30
2018-07-26T22:21:41.870Z,28.30
2018-07-26T22:24:11.592Z,28.20
2018-07-26T22:26:41.306Z,28.20
2018-07-26T22:29:11.077Z,28.20
2018-07-26T22:31:40.826Z,28.10
2018-07-26T22:34:10.635Z,28.10
2018-07-26T22:36:40.266Z,28.10
2018-07-26T22:39:11.283Z,28.10
2018-07-26T22:41:41.311Z,28.10
2018-07-26T22:44:11.037Z,28.10
2018-07-26T22:46:40.719Z,28.20
2018-07-26T22:49:10.425Z,28.20
2018-07-26T22:51:40.225Z,28.30
2018-07-26T22:54:09.966Z,28.40
2018-07-26T22:56:39.859Z,28.50
2018-07-26T22:59:09.643Z,28.50
2018-07-26T23:01:39.468Z,28.60
2018-07-26T23:04:09.193Z,28.70
2018-07-26T23:06:38.937Z,28.70
2018-07-26T23:09:10.908Z,28.80
2018-07-26T23:11:40.754Z,28.90
2018-07-26T23:14:10.627Z,28.90
2018-07-26T23:16:40.327Z,29.00
2018-07-26T23:19:10.059Z,29.00
2018-07-26T23:21:39.709Z,29.10
2018-07-26T23:24:09.407Z,29.10
2018-07-26T23:26:39.124Z,29.10
2018-07-26T23:29:08.764Z,29.20
2018-07-26T23:31:38.846Z,29.20
2018-07-26T23:34:08.466Z,29.20
2018-07-26T23:36:38.538Z,29.20
2018-07-26T23:39:11.014Z,29.20
2018-07-26T23:41:40.878Z,29.20
2018-07-26T23:44:10.562Z,29.20
2018-07-26T23:46:40.186Z,29.20
2018-07-26T23:49:10.028Z,29.10
2018-07-26T23:51:39.704Z,29.20
2018-07-26T23:54:09.312Z,29.20
2018-07-26T23:56:39.172Z,29.10
2018-07-26T23:59:08.812Z,29.10
